MET'MAP v2.0
soon released !

Expected late october,
this new version will be
more efficient, smarter,
and hosted on a brand new
server x3 powerfull...
...and still free !


Not compatible ?
Try the mobile version !

LOG IN : | Subscribe | Disclaimer | Who is Orbifly ? |
ICAO code :

TAF - LEVX Vigo Peinador - 15 Dec 2019 17:13 UTC
Data Sources :     NOAA   


- Airport Elevation : 856 ft
- IATA code : VGO
- No reported NOTAMs.


LEVX - Vigo Peinador

Latest METAR recorded : 2015/08/11 08:00 LEVX 110800Z 00000KT 2000 BR NSC 18/17 Q1014 TEMPO 4000 BR
TAF AMD TAF LEVX
Valid from the 15 at 15:00 until the 16 at 12:00 UTC


151502Z 1515/1612 VRB05KT 8000 SCT010 BKN016 TX10/1515Z TN06/1612Z
TEMPO 1515/1612 1500 BR BKN005
TEMPO 1515/1612 0800 BCFG BKN003
TEMPO 1520/1612 3000 -RA
PROB40
TEMPO 1605/1612 0800 RA BCFG BKN003 BKN010
TEMPO 1610/1612 35010KT

Source NOAA


MET'MAP, your aeronautical weather chart ! - Copyright ORBIFLY December 2007

Programming & Development : Alexandra Zaïnal
Co-Developer : Marc-Olivier Méhu
Technical & hardware support : Manuel Goepfert
Concept & Financing : Baudouin d'Aumeries